createdAt,value
2023-11-23T00:00:25.853Z,5.70
2023-11-23T00:03:49.918Z,5.80
2023-11-23T00:07:15.429Z,5.90
2023-11-23T00:10:40.461Z,5.90
2023-11-23T00:14:05.434Z,5.90
2023-11-23T00:17:32.203Z,6.00
2023-11-23T00:20:58.813Z,6.00
2023-11-23T00:24:24.312Z,6.00
2023-11-23T00:27:50.338Z,6.10
2023-11-23T00:31:14.072Z,6.00
2023-11-23T00:34:37.969Z,6.10
2023-11-23T00:38:03.892Z,6.10
2023-11-23T00:41:29.098Z,6.10
2023-11-23T00:44:52.882Z,6.10
2023-11-23T00:48:16.952Z,6.10
2023-11-23T00:51:40.621Z,6.10
2023-11-23T00:55:05.612Z,6.10
2023-11-23T00:58:31.287Z,6.10
2023-11-23T01:01:55.324Z,6.00
2023-11-23T01:05:20.360Z,6.00
2023-11-23T01:08:44.923Z,5.90
2023-11-23T01:12:17.193Z,5.80
2023-11-23T01:15:43.364Z,5.80
2023-11-23T01:19:07.956Z,5.80
2023-11-23T01:22:31.896Z,5.70
2023-11-23T01:25:58.000Z,5.60
2023-11-23T01:29:21.952Z,5.60
2023-11-23T01:32:47.416Z,5.60
2023-11-23T01:36:11.307Z,5.70
2023-11-23T01:39:34.926Z,5.70
2023-11-23T01:43:03.272Z,5.70
2023-11-23T01:46:26.985Z,5.70
2023-11-23T01:49:53.759Z,5.80
2023-11-23T01:53:18.430Z,5.80
2023-11-23T01:56:45.094Z,5.80
2023-11-23T02:00:10.875Z,5.80
2023-11-23T02:03:39.080Z,5.80
2023-11-23T02:07:04.390Z,5.90
2023-11-23T02:10:29.130Z,5.90
2023-11-23T02:13:53.042Z,5.90
2023-11-23T02:17:18.249Z,6.00
2023-11-23T02:20:45.032Z,5.90
2023-11-23T02:24:12.511Z,5.90
2023-11-23T02:27:38.093Z,6.00
2023-11-23T02:31:03.181Z,6.00
2023-11-23T02:34:27.103Z,6.00
2023-11-23T02:37:51.034Z,6.00
2023-11-23T02:41:16.439Z,6.10
2023-11-23T02:44:39.997Z,6.10
2023-11-23T02:48:06.005Z,6.10
2023-11-23T02:51:29.717Z,6.20
2023-11-23T02:54:53.999Z,6.20
2023-11-23T02:58:19.402Z,6.20
2023-11-23T03:01:43.195Z,6.30
2023-11-23T03:05:07.901Z,6.30
2023-11-23T03:08:32.070Z,6.30
2023-11-23T03:11:56.023Z,6.40
2023-11-23T03:15:21.519Z,6.40
2023-11-23T03:18:46.704Z,6.40
2023-11-23T03:22:11.024Z,6.40
2023-11-23T03:25:35.111Z,6.50
2023-11-23T03:28:59.035Z,6.50
2023-11-23T03:32:26.355Z,6.50
2023-11-23T03:35:51.217Z,6.50
2023-11-23T03:39:15.155Z,6.60
2023-11-23T03:42:39.135Z,6.60
2023-11-23T03:46:03.788Z,6.60
2023-11-23T03:49:32.052Z,6.60
2023-11-23T03:52:59.435Z,6.60
2023-11-23T03:56:23.193Z,6.60
2023-11-23T03:59:47.319Z,6.60
2023-11-23T04:03:11.123Z,6.70
2023-11-23T04:06:36.337Z,6.70
2023-11-23T04:10:00.267Z,6.70
2023-11-23T04:13:24.093Z,6.70
2023-11-23T04:16:50.954Z,6.70
2023-11-23T04:20:15.254Z,6.80
2023-11-23T04:23:40.511Z,6.90
2023-11-23T04:27:04.585Z,6.90
2023-11-23T04:30:29.153Z,6.90
2023-11-23T04:33:53.258Z,6.90
2023-11-23T04:37:17.933Z,6.90
2023-11-23T04:40:43.510Z,7.00
2023-11-23T04:44:07.409Z,7.00
2023-11-23T04:47:31.442Z,7.00
2023-11-23T04:50:56.440Z,7.00
2023-11-23T04:54:20.534Z,7.00
2023-11-23T04:57:47.226Z,7.10
2023-11-23T05:01:11.736Z,7.10
2023-11-23T05:04:36.191Z,7.10
2023-11-23T05:08:00.201Z,7.20
2023-11-23T05:11:24.555Z,7.20
2023-11-23T05:14:49.699Z,7.30
2023-11-23T05:18:14.905Z,7.30
2023-11-23T05:21:39.209Z,7.30
2023-11-23T05:25:03.189Z,7.30
2023-11-23T05:28:27.196Z,7.30
2023-11-23T05:31:52.478Z,7.30
2023-11-23T05:35:16.293Z,7.40
2023-11-23T05:38:40.271Z,7.50
2023-11-23T05:42:04.383Z,7.50
2023-11-23T05:45:28.629Z,7.50
2023-11-23T05:48:54.617Z,7.50
2023-11-23T05:52:19.161Z,7.50
2023-11-23T05:55:43.263Z,7.60
2023-11-23T05:59:07.229Z,7.60
2023-11-23T06:02:31.742Z,7.70
2023-11-23T06:05:57.671Z,7.60
2023-11-23T06:09:21.369Z,7.70
2023-11-23T06:12:45.276Z,7.70
2023-11-23T06:16:11.674Z,7.70
2023-11-23T06:19:36.910Z,7.70
2023-11-23T06:23:02.591Z,7.70
2023-11-23T06:26:26.205Z,7.80
2023-11-23T06:29:52.626Z,7.80
2023-11-23T06:33:17.417Z,7.90
2023-11-23T06:36:52.087Z,7.90
2023-11-23T06:40:18.052Z,7.90
2023-11-23T06:43:43.760Z,7.90
2023-11-23T06:47:07.609Z,7.90
2023-11-23T06:50:31.371Z,7.90
2023-11-23T06:53:55.318Z,8.00
2023-11-23T06:57:24.078Z,8.00
2023-11-23T07:00:50.520Z,8.00
2023-11-23T07:04:15.134Z,8.10
2023-11-23T07:07:39.271Z,8.10
2023-11-23T07:11:05.456Z,8.10
2023-11-23T07:14:30.709Z,8.10
2023-11-23T07:17:54.937Z,8.10
2023-11-23T07:21:19.921Z,8.20
2023-11-23T07:24:46.481Z,8.20
2023-11-23T07:28:10.970Z,8.20
2023-11-23T07:31:38.684Z,8.30
2023-11-23T07:35:03.985Z,8.30
2023-11-23T07:38:28.357Z,8.30
2023-11-23T07:41:53.059Z,8.30
2023-11-23T07:45:20.420Z,8.40
2023-11-23T07:48:52.302Z,8.40
2023-11-23T07:52:16.739Z,8.50
2023-11-23T07:55:41.362Z,8.50
2023-11-23T07:59:10.349Z,8.60
2023-11-23T08:02:33.980Z,8.60
2023-11-23T08:05:59.098Z,8.60
2023-11-23T08:09:22.736Z,8.60
2023-11-23T08:12:46.507Z,8.60
2023-11-23T08:16:10.572Z,8.60
2023-11-23T08:19:34.243Z,8.70
2023-11-23T08:22:59.404Z,8.70
2023-11-23T08:26:23.456Z,8.70
2023-11-23T08:29:48.498Z,8.70
2023-11-23T08:33:12.264Z,8.80
2023-11-23T08:36:36.867Z,8.80
2023-11-23T08:40:01.800Z,8.80
2023-11-23T08:43:25.482Z,8.80
2023-11-23T08:46:49.319Z,8.80
2023-11-23T08:50:14.594Z,8.90
2023-11-23T08:53:38.171Z,8.90
2023-11-23T08:57:04.554Z,8.90
2023-11-23T09:00:30.018Z,8.90
2023-11-23T09:03:53.994Z,8.90
2023-11-23T09:07:17.994Z,8.90
2023-11-23T09:10:41.616Z,8.90
2023-11-23T09:14:06.628Z,9.00
2023-11-23T09:17:30.245Z,9.00
2023-11-23T09:20:54.234Z,9.00
2023-11-23T09:24:18.548Z,9.00
2023-11-23T09:27:42.209Z,9.10
2023-11-23T09:31:09.516Z,9.10
2023-11-23T09:34:33.084Z,9.20
2023-11-23T09:37:58.559Z,9.20
2023-11-23T09:41:24.254Z,9.20
2023-11-23T09:44:55.646Z,9.20
2023-11-23T09:48:21.903Z,9.20
2023-11-23T09:51:46.531Z,9.20
2023-11-23T09:55:12.120Z,9.30
2023-11-23T09:58:35.997Z,9.30
2023-11-23T10:02:06.255Z,9.30
2023-11-23T10:05:31.980Z,9.30
2023-11-23T10:08:55.623Z,9.40
2023-11-23T10:12:20.238Z,9.40
2023-11-23T10:15:46.344Z,9.40
2023-11-23T10:19:20.929Z,9.40
2023-11-23T10:22:46.630Z,9.40
2023-11-23T10:26:11.280Z,9.40
2023-11-23T10:29:35.497Z,9.50
2023-11-23T10:33:01.115Z,9.50
2023-11-23T10:36:26.515Z,9.50
2023-11-23T10:39:53.244Z,9.50
2023-11-23T10:43:18.645Z,9.50
2023-11-23T10:46:43.208Z,9.60
2023-11-23T10:50:08.827Z,9.60
2023-11-23T10:53:32.637Z,9.60
2023-11-23T10:57:02.107Z,9.60
2023-11-23T11:00:27.639Z,9.60
2023-11-23T11:03:51.841Z,9.70
2023-11-23T11:07:15.565Z,9.70
2023-11-23T11:10:49.258Z,9.70
2023-11-23T11:14:17.371Z,9.70
2023-11-23T11:17:41.202Z,9.80
2023-11-23T11:21:09.481Z,9.80
2023-11-23T11:24:33.383Z,9.80
2023-11-23T11:27:58.154Z,9.80
2023-11-23T11:31:31.255Z,9.90
2023-11-23T11:35:03.910Z,9.90
2023-11-23T11:38:27.635Z,9.90
2023-11-23T11:42:00.401Z,10.00
2023-11-23T11:45:27.543Z,10.00
2023-11-23T11:48:52.540Z,10.00
2023-11-23T11:52:17.836Z,10.00
2023-11-23T11:55:45.649Z,10.00
2023-11-23T11:59:13.701Z,10.00
2023-11-23T12:02:43.292Z,10.00
2023-11-23T12:06:16.496Z,10.10
2023-11-23T12:09:46.239Z,10.10
2023-11-23T12:13:17.925Z,10.10
2023-11-23T12:16:42.180Z,10.20
2023-11-23T12:20:08.751Z,10.20
2023-11-23T12:23:57.904Z,10.20
2023-11-23T12:27:22.719Z,10.20
2023-11-23T12:30:49.007Z,10.20
2023-11-23T12:34:17.252Z,10.20
2023-11-23T12:37:45.197Z,10.20
2023-11-23T12:41:11.884Z,10.20
2023-11-23T12:44:41.496Z,10.20
2023-11-23T12:48:06.774Z,10.20
2023-11-23T12:51:30.869Z,10.20
2023-11-23T12:55:09.250Z,10.20
2023-11-23T12:58:43.428Z,10.20
2023-11-23T13:02:09.522Z,10.20
2023-11-23T13:05:37.053Z,10.20
2023-11-23T13:09:07.631Z,10.20
2023-11-23T13:12:33.812Z,10.30
2023-11-23T13:15:59.123Z,10.30
2023-11-23T13:19:30.718Z,10.20
2023-11-23T13:23:01.523Z,10.20
2023-11-23T13:26:26.165Z,10.20
2023-11-23T13:29:50.928Z,10.30
2023-11-23T13:33:21.711Z,10.30
2023-11-23T13:36:45.641Z,10.30
2023-11-23T13:40:11.202Z,10.30
2023-11-23T13:43:35.709Z,10.30
2023-11-23T13:46:59.779Z,10.30
2023-11-23T13:50:30.031Z,10.30
2023-11-23T13:53:53.863Z,10.40
2023-11-23T13:57:20.968Z,10.40
2023-11-23T14:00:44.774Z,10.40
2023-11-23T14:04:09.543Z,10.40
2023-11-23T14:07:34.633Z,10.50
2023-11-23T14:10:58.702Z,10.50
2023-11-23T14:14:22.415Z,10.50
2023-11-23T14:17:46.095Z,10.50
2023-11-23T14:21:12.800Z,10.50
2023-11-23T14:24:39.939Z,10.60
2023-11-23T14:28:03.579Z,10.50
2023-11-23T14:31:28.452Z,10.60
2023-11-23T14:34:52.781Z,10.60
2023-11-23T14:38:17.183Z,10.60
2023-11-23T14:41:42.226Z,10.60
2023-11-23T14:45:07.057Z,10.70
2023-11-23T14:48:30.826Z,10.70
2023-11-23T14:51:56.643Z,10.70
2023-11-23T14:55:20.331Z,10.70
2023-11-23T14:58:46.524Z,10.80
2023-11-23T15:02:10.993Z,10.80
2023-11-23T15:05:34.717Z,10.80
2023-11-23T15:08:58.403Z,10.80
2023-11-23T15:12:22.362Z,10.80
2023-11-23T15:15:47.453Z,10.80
2023-11-23T15:19:11.427Z,10.90
2023-11-23T15:22:35.629Z,10.90
2023-11-23T15:25:59.464Z,10.90
2023-11-23T15:29:23.430Z,10.90
2023-11-23T15:32:50.652Z,10.90
2023-11-23T15:36:14.217Z,10.90
2023-11-23T15:39:39.497Z,10.90
2023-11-23T15:43:03.791Z,10.90
2023-11-23T15:46:28.217Z,10.90
2023-11-23T15:49:53.549Z,10.90
2023-11-23T15:53:17.167Z,10.90
2023-11-23T15:56:40.834Z,11.00
2023-11-23T16:00:05.640Z,11.00
2023-11-23T16:03:30.681Z,11.00
2023-11-23T16:06:55.694Z,11.00
2023-11-23T16:10:19.803Z,11.00
2023-11-23T16:13:43.583Z,10.90
2023-11-23T16:17:08.076Z,10.80
2023-11-23T16:20:31.726Z,10.80
2023-11-23T16:23:57.876Z,10.70
2023-11-23T16:27:22.489Z,10.60
2023-11-23T16:30:46.227Z,10.60
2023-11-23T16:34:09.880Z,10.60
2023-11-23T16:37:34.990Z,10.60
2023-11-23T16:41:01.241Z,10.50
2023-11-23T16:44:24.800Z,10.50
2023-11-23T16:47:49.600Z,10.50
2023-11-23T16:51:15.081Z,10.40
2023-11-23T16:54:39.869Z,10.50
2023-11-23T16:58:06.001Z,10.50
2023-11-23T17:01:29.732Z,10.50
2023-11-23T17:04:55.526Z,10.40
2023-11-23T17:08:20.800Z,10.40
2023-11-23T17:11:46.933Z,10.40
2023-11-23T17:15:13.063Z,10.40
2023-11-23T17:18:36.960Z,10.40
2023-11-23T17:22:01.385Z,10.50
2023-11-23T17:25:25.562Z,10.40
2023-11-23T17:28:49.775Z,10.40
2023-11-23T17:32:15.328Z,10.40
2023-11-23T17:35:39.021Z,10.40
2023-11-23T17:39:03.955Z,10.40
2023-11-23T17:42:27.835Z,10.40
2023-11-23T17:45:51.892Z,10.40
2023-11-23T17:49:19.166Z,10.40
2023-11-23T17:52:43.619Z,10.40
2023-11-23T17:56:10.669Z,10.40
2023-11-23T17:59:46.956Z,10.40
2023-11-23T18:03:17.200Z,10.40
2023-11-23T18:06:45.276Z,10.40
2023-11-23T18:10:16.353Z,10.40
2023-11-23T18:13:46.053Z,10.40
2023-11-23T18:17:17.145Z,10.40
2023-11-23T18:20:44.922Z,10.40
2023-11-23T18:24:14.468Z,10.40
2023-11-23T18:27:41.538Z,10.40
2023-11-23T18:31:05.176Z,10.40
2023-11-23T18:34:28.770Z,10.40
2023-11-23T18:37:52.507Z,10.40
2023-11-23T18:41:17.443Z,10.40
2023-11-23T18:44:41.826Z,10.40
2023-11-23T18:48:05.978Z,10.40
2023-11-23T18:51:32.975Z,10.40
2023-11-23T18:54:57.665Z,10.40
2023-11-23T18:58:24.033Z,10.40
2023-11-23T19:01:49.976Z,10.40
2023-11-23T19:05:15.092Z,10.40
2023-11-23T19:08:43.158Z,10.40
2023-11-23T19:12:07.331Z,10.40
2023-11-23T19:15:32.408Z,10.40
2023-11-23T19:18:56.851Z,10.40
2023-11-23T19:22:29.412Z,10.40
2023-11-23T19:25:53.895Z,10.40
2023-11-23T19:29:23.638Z,10.40
2023-11-23T19:32:53.345Z,10.40
2023-11-23T19:36:19.090Z,10.40
2023-11-23T19:39:44.575Z,10.40
2023-11-23T19:43:09.184Z,10.40
2023-11-23T19:46:33.473Z,10.40
2023-11-23T19:49:59.080Z,10.40
2023-11-23T19:53:24.828Z,10.40
2023-11-23T19:56:49.153Z,10.40
2023-11-23T20:00:15.264Z,10.40
2023-11-23T20:03:39.064Z,10.50
2023-11-23T20:07:04.572Z,10.50
2023-11-23T20:10:28.132Z,10.50
2023-11-23T20:13:52.097Z,10.50
2023-11-23T20:17:15.884Z,10.50
2023-11-23T20:20:41.146Z,10.20
2023-11-23T20:24:07.206Z,10.20
2023-11-23T20:27:31.338Z,10.10
2023-11-23T20:30:55.084Z,10.00
2023-11-23T20:34:19.471Z,10.00
2023-11-23T20:37:43.166Z,9.90
2023-11-23T20:41:08.309Z,9.90
2023-11-23T20:44:31.933Z,9.80
2023-11-23T20:47:55.591Z,9.80
2023-11-23T20:51:20.017Z,9.80
2023-11-23T20:54:44.029Z,9.80
2023-11-23T20:58:09.684Z,9.80
2023-11-23T21:01:34.427Z,9.70
2023-11-23T21:04:58.709Z,9.70
2023-11-23T21:08:24.251Z,9.70
2023-11-23T21:11:51.425Z,9.60
2023-11-23T21:15:16.592Z,9.50
2023-11-23T21:18:40.385Z,9.30
2023-11-23T21:22:05.429Z,9.20
2023-11-23T21:25:30.081Z,9.00
2023-11-23T21:28:53.790Z,8.80
2023-11-23T21:32:18.936Z,8.60
2023-11-23T21:35:42.722Z,8.60
2023-11-23T21:39:06.372Z,8.60
2023-11-23T21:42:29.996Z,8.60
2023-11-23T21:45:53.624Z,8.60
2023-11-23T21:49:18.570Z,8.70
2023-11-23T21:52:42.627Z,8.70
2023-11-23T21:56:06.860Z,8.80
2023-11-23T21:59:30.575Z,8.90
2023-11-23T22:02:54.206Z,8.90
2023-11-23T22:06:20.019Z,8.90
2023-11-23T22:09:43.629Z,8.90
2023-11-23T22:13:07.407Z,8.90
2023-11-23T22:16:32.198Z,9.00
2023-11-23T22:19:57.342Z,9.00
2023-11-23T22:23:23.552Z,9.00
2023-11-23T22:26:48.998Z,9.00
2023-11-23T22:30:14.520Z,9.00
2023-11-23T22:33:39.012Z,8.90
2023-11-23T22:37:05.184Z,8.80
2023-11-23T22:40:32.289Z,8.80
2023-11-23T22:43:57.125Z,8.80
2023-11-23T22:47:22.453Z,8.50
2023-11-23T22:50:46.114Z,8.20
2023-11-23T22:54:10.829Z,8.10
2023-11-23T22:57:35.934Z,8.10
2023-11-23T23:01:01.316Z,8.10
2023-11-23T23:04:25.702Z,8.00
2023-11-23T23:07:49.959Z,8.10
2023-11-23T23:11:14.523Z,8.00
2023-11-23T23:14:40.612Z,8.00
2023-11-23T23:18:04.649Z,7.90
2023-11-23T23:21:32.365Z,7.90
2023-11-23T23:24:56.455Z,7.90
2023-11-23T23:28:29.372Z,7.90
2023-11-23T23:31:59.650Z,7.90
2023-11-23T23:35:25.621Z,7.90
2023-11-23T23:38:49.502Z,7.90
2023-11-23T23:42:13.507Z,7.90
2023-11-23T23:45:37.585Z,7.90
2023-11-23T23:49:03.360Z,7.90
2023-11-23T23:52:27.023Z,7.90
2023-11-23T23:55:51.473Z,7.80
2023-11-23T23:59:15.494Z,7.90
